Aviation Digital Data Service (ADDS)

Output produced by METARs form (0854 UTC 23 July 2019)
found at http://www.aviationweather.gov/metar/data/
 
METAR text: RCTP 230830Z 33005KT 300V020 9999 FEW018 BKN050 BKN200 29/25 Q1005 NOSIG RMK A2970
Conditions at: RCTP (TAIPEI TAOYUAN , TW) observed 0830 UTC 23 July 2019
Temperature: 29.0°C (84°F)
Dewpoint: 25.0°C (77°F) [RH = 79%]
Pressure (altimeter): 29.68 inches Hg (1005.0 mb)
Winds: from the NNW (330 degrees) at 6 MPH (5 knots; 2.6 m/s)
Visibility: 6 or more miles (10+ km)
Ceiling: 5000 feet AGL
Clouds: few clouds at 1800 feet AGL
broken clouds at 5000 feet AGL
broken clouds at 20000 feet AGL
Weather: no significant weather observed at this time

METAR text: RCTP 230800Z 31006KT 280V350 9999 FEW018 BKN050 BKN200 30/25 Q1006 NOSIG RMK A2971
Conditions at: RCTP (TAIPEI TAOYUAN , TW) observed 0800 UTC 23 July 2019
Temperature: 30.0°C (86°F)
Dewpoint: 25.0°C (77°F) [RH = 75%]
Pressure (altimeter): 29.70 inches Hg (1006.0 mb)
Winds: from the NW (310 degrees) at 7 MPH (6 knots; 3.1 m/s)
Visibility: 6 or more miles (10+ km)
Ceiling: 5000 feet AGL
Clouds: few clouds at 1800 feet AGL
broken clouds at 5000 feet AGL
broken clouds at 20000 feet AGL
Weather: no significant weather observed at this time

METAR text: RCTP 230730Z 30006KT 9999 FEW018 FEW020CB SCT060 BKN200 30/26 Q1006 NOSIG RMK CB SE A2972
Conditions at: RCTP (TAIPEI TAOYUAN , TW) observed 0730 UTC 23 July 2019
Temperature: 30.0°C (86°F)
Dewpoint: 26.0°C (79°F) [RH = 79%]
Pressure (altimeter): 29.70 inches Hg (1006.0 mb)
Winds: from the WNW (300 degrees) at 7 MPH (6 knots; 3.1 m/s)
Visibility: 6 or more miles (10+ km)
Ceiling: 20000 feet AGL
Clouds: few clouds at 1800 feet AGL
few clouds at 2000 feet AGL
scattered clouds at 6000 feet AGL
broken clouds at 20000 feet AGL
Weather: no significant weather observed at this time

METAR text: RCTP 230700Z 29008KT 260V320 9999 FEW018 FEW020CB SCT040 BKN200 29/25 Q1006 NOSIG RMK CB SE A2972
Conditions at: RCTP (TAIPEI TAOYUAN , TW) observed 0700 UTC 23 July 2019
Temperature: 29.0°C (84°F)
Dewpoint: 25.0°C (77°F) [RH = 79%]
Pressure (altimeter): 29.70 inches Hg (1006.0 mb)
Winds: from the WNW (290 degrees) at 9 MPH (8 knots; 4.1 m/s)
Visibility: 6 or more miles (10+ km)
Ceiling: 20000 feet AGL
Clouds: few clouds at 1800 feet AGL
few clouds at 2000 feet AGL
scattered clouds at 4000 feet AGL
broken clouds at 20000 feet AGL
Weather: no significant weather observed at this time

METAR text: RCTP 230630Z 27011KT 9999 FEW018 FEW020CB 32/25 Q1006 NOSIG RMK CB SE A2971
Conditions at: RCTP (TAIPEI TAOYUAN , TW) observed 0630 UTC 23 July 2019
Temperature: 32.0°C (90°F)
Dewpoint: 25.0°C (77°F) [RH = 67%]
Pressure (altimeter): 29.70 inches Hg (1006.0 mb)
Winds: from the W (270 degrees) at 13 MPH (11 knots; 5.7 m/s)
Visibility: 6 or more miles (10+ km)
Ceiling: at least 12,000 feet AGL
Clouds: few clouds at 1800 feet AGL
few clouds at 2000 feet AGL
Weather: no significant weather observed at this time

METAR text: RCTP 230600Z 29012KT 250V310 9999 FEW016 FEW020CB SCT040 32/25 Q1006 NOSIG RMK CB SE A2972
Conditions at: RCTP (TAIPEI TAOYUAN , TW) observed 0600 UTC 23 July 2019
Temperature: 32.0°C (90°F)
Dewpoint: 25.0°C (77°F) [RH = 67%]
Pressure (altimeter): 29.70 inches Hg (1006.0 mb)
Winds: from the WNW (290 degrees) at 14 MPH (12 knots; 6.2 m/s)
Visibility: 6 or more miles (10+ km)
Ceiling: at least 12,000 feet AGL
Clouds: few clouds at 1600 feet AGL
few clouds at 2000 feet AGL
scattered clouds at 4000 feet AGL
Weather: no significant weather observed at this time

METAR text: RCTP 230530Z 29013KT 260V320 9999 FEW020 SCT200 32/26 Q1006 NOSIG RMK A2973
Conditions at: RCTP (TAIPEI TAOYUAN , TW) observed 0530 UTC 23 July 2019
Temperature: 32.0°C (90°F)
Dewpoint: 26.0°C (79°F) [RH = 71%]
Pressure (altimeter): 29.70 inches Hg (1006.0 mb)
Winds: from the WNW (290 degrees) at 15 MPH (13 knots; 6.7 m/s)
Visibility: 6 or more miles (10+ km)
Ceiling: at least 12,000 feet AGL
Clouds: few clouds at 2000 feet AGL
scattered clouds at 20000 feet AGL
Weather: no significant weather observed at this time

METAR text: RCTP 230500Z 29012KT 9999 FEW020 SCT200 32/25 Q1006 NOSIG RMK A2973
Conditions at: RCTP (TAIPEI TAOYUAN , TW) observed 0500 UTC 23 July 2019
Temperature: 32.0°C (90°F)
Dewpoint: 25.0°C (77°F) [RH = 67%]
Pressure (altimeter): 29.70 inches Hg (1006.0 mb)
Winds: from the WNW (290 degrees) at 14 MPH (12 knots; 6.2 m/s)
Visibility: 6 or more miles (10+ km)
Ceiling: at least 12,000 feet AGL
Clouds: few clouds at 2000 feet AGL
scattered clouds at 20000 feet AGL
Weather: no significant weather observed at this time

METAR text: RCTP 230430Z 29013KT 9999 FEW020 SCT200 32/25 Q1007 NOSIG RMK A2974
Conditions at: RCTP (TAIPEI TAOYUAN , TW) observed 0430 UTC 23 July 2019
Temperature: 32.0°C (90°F)
Dewpoint: 25.0°C (77°F) [RH = 67%]
Pressure (altimeter): 29.73 inches Hg (1007.0 mb)
Winds: from the WNW (290 degrees) at 15 MPH (13 knots; 6.7 m/s)
Visibility: 6 or more miles (10+ km)
Ceiling: at least 12,000 feet AGL
Clouds: few clouds at 2000 feet AGL
scattered clouds at 20000 feet AGL
Weather: no significant weather observed at this time

METAR text: RCTP 230400Z 29013KT 9999 FEW020 SCT200 32/25 Q1007 NOSIG RMK A2974
Conditions at: RCTP (TAIPEI TAOYUAN , TW) observed 0400 UTC 23 July 2019
Temperature: 32.0°C (90°F)
Dewpoint: 25.0°C (77°F) [RH = 67%]
Pressure (altimeter): 29.73 inches Hg (1007.0 mb)
Winds: from the WNW (290 degrees) at 15 MPH (13 knots; 6.7 m/s)
Visibility: 6 or more miles (10+ km)
Ceiling: at least 12,000 feet AGL
Clouds: few clouds at 2000 feet AGL
scattered clouds at 20000 feet AGL
Weather: no significant weather observed at this time

METAR text: RCTP 230330Z 28012KT 9999 FEW020 SCT200 33/24 Q1006 NOSIG RMK A2973
Conditions at: RCTP (TAIPEI TAOYUAN , TW) observed 0330 UTC 23 July 2019
Temperature: 33.0°C (91°F)
Dewpoint: 24.0°C (75°F) [RH = 59%]
Pressure (altimeter): 29.70 inches Hg (1006.0 mb)
Winds: from the W (280 degrees) at 14 MPH (12 knots; 6.2 m/s)
Visibility: 6 or more miles (10+ km)
Ceiling: at least 12,000 feet AGL
Clouds: few clouds at 2000 feet AGL
scattered clouds at 20000 feet AGL
Weather: no significant weather observed at this time

METAR text: RCTP 230300Z 28012KT 9999 FEW020 SCT035 33/25 Q1007 NOSIG RMK A2974
Conditions at: RCTP (TAIPEI TAOYUAN , TW) observed 0300 UTC 23 July 2019
Temperature: 33.0°C (91°F)
Dewpoint: 25.0°C (77°F) [RH = 63%]
Pressure (altimeter): 29.73 inches Hg (1007.0 mb)
Winds: from the W (280 degrees) at 14 MPH (12 knots; 6.2 m/s)
Visibility: 6 or more miles (10+ km)
Ceiling: at least 12,000 feet AGL
Clouds: few clouds at 2000 feet AGL
scattered clouds at 3500 feet AGL
Weather: no significant weather observed at this time

METAR text: RCTP 230230Z 28011KT 9999 FEW020 SCT035 32/25 Q1007 NOSIG RMK A2975
Conditions at: RCTP (TAIPEI TAOYUAN , TW) observed 0230 UTC 23 July 2019
Temperature: 32.0°C (90°F)
Dewpoint: 25.0°C (77°F) [RH = 67%]
Pressure (altimeter): 29.73 inches Hg (1007.0 mb)
Winds: from the W (280 degrees) at 13 MPH (11 knots; 5.7 m/s)
Visibility: 6 or more miles (10+ km)
Ceiling: at least 12,000 feet AGL
Clouds: few clouds at 2000 feet AGL
scattered clouds at 3500 feet AGL
Weather: no significant weather observed at this time

METAR text: RCTP 230200Z 28009KT 240V320 9999 FEW020 SCT035 32/24 Q1007 NOSIG RMK A2975
Conditions at: RCTP (TAIPEI TAOYUAN , TW) observed 0200 UTC 23 July 2019
Temperature: 32.0°C (90°F)
Dewpoint: 24.0°C (75°F) [RH = 63%]
Pressure (altimeter): 29.73 inches Hg (1007.0 mb)
Winds: from the W (280 degrees) at 10 MPH (9 knots; 4.6 m/s)
Visibility: 6 or more miles (10+ km)
Ceiling: at least 12,000 feet AGL
Clouds: few clouds at 2000 feet AGL
scattered clouds at 3500 feet AGL
Weather: no significant weather observed at this time

METAR text: RCTP 230130Z 25006KT 210V290 9999 FEW020 SCT200 32/23 Q1007 NOSIG RMK A2975
Conditions at: RCTP (TAIPEI TAOYUAN , TW) observed 0130 UTC 23 July 2019
Temperature: 32.0°C (90°F)
Dewpoint: 23.0°C (73°F) [RH = 59%]
Pressure (altimeter): 29.73 inches Hg (1007.0 mb)
Winds: from the WSW (250 degrees) at 7 MPH (6 knots; 3.1 m/s)
Visibility: 6 or more miles (10+ km)
Ceiling: at least 12,000 feet AGL
Clouds: few clouds at 2000 feet AGL
scattered clouds at 20000 feet AGL
Weather: no significant weather observed at this time

METAR text: RCTP 230100Z 24007KT 200V270 9999 FEW020 SCT200 31/23 Q1007 NOSIG RMK A2976
Conditions at: RCTP (TAIPEI TAOYUAN , TW) observed 0100 UTC 23 July 2019
Temperature: 31.0°C (88°F)
Dewpoint: 23.0°C (73°F) [RH = 63%]
Pressure (altimeter): 29.73 inches Hg (1007.0 mb)
Winds: from the WSW (240 degrees) at 8 MPH (7 knots; 3.6 m/s)
Visibility: 6 or more miles (10+ km)
Ceiling: at least 12,000 feet AGL
Clouds: few clouds at 2000 feet AGL
scattered clouds at 20000 feet AGL
Weather: no significant weather observed at this time

METAR text: RCTP 230030Z 25006KT 210V270 9999 FEW020 SCT200 31/23 Q1008 NOSIG RMK A2977
Conditions at: RCTP (TAIPEI TAOYUAN , TW) observed 0030 UTC 23 July 2019
Temperature: 31.0°C (88°F)
Dewpoint: 23.0°C (73°F) [RH = 63%]
Pressure (altimeter): 29.76 inches Hg (1008.0 mb)
Winds: from the WSW (250 degrees) at 7 MPH (6 knots; 3.1 m/s)
Visibility: 6 or more miles (10+ km)
Ceiling: at least 12,000 feet AGL
Clouds: few clouds at 2000 feet AGL
scattered clouds at 20000 feet AGL
Weather: no significant weather observed at this time

METAR text: RCTP 230000Z 17006KT 110V210 9999 FEW015 31/23 Q1007 NOSIG RMK A2976
Conditions at: RCTP (TAIPEI TAOYUAN , TW) observed 0000 UTC 23 July 2019
Temperature: 31.0°C (88°F)
Dewpoint: 23.0°C (73°F) [RH = 63%]
Pressure (altimeter): 29.73 inches Hg (1007.0 mb)
Winds: from the S (170 degrees) at 7 MPH (6 knots; 3.1 m/s)
Visibility: 6 or more miles (10+ km)
Ceiling: at least 12,000 feet AGL
Clouds: few clouds at 1500 feet AGL
Weather: no significant weather observed at this time

METAR text: RCTP 222330Z 15004KT 120V180 9999 FEW015 30/24 Q1008 NOSIG RMK A2977
Conditions at: RCTP (TAIPEI TAOYUAN , TW) observed 2330 UTC 22 July 2019
Temperature: 30.0°C (86°F)
Dewpoint: 24.0°C (75°F) [RH = 70%]
Pressure (altimeter): 29.76 inches Hg (1008.0 mb)
Winds: from the SSE (150 degrees) at 5 MPH (4 knots; 2.1 m/s)
Visibility: 6 or more miles (10+ km)
Ceiling: at least 12,000 feet AGL
Clouds: few clouds at 1500 feet AGL
Weather: no significant weather observed at this time

METAR text: RCTP 222300Z 16007KT 140V200 9999 FEW015 SCT120 28/24 Q1008 NOSIG RMK A2977
Conditions at: RCTP (TAIPEI TAOYUAN , TW) observed 2300 UTC 22 July 2019
Temperature: 28.0°C (82°F)
Dewpoint: 24.0°C (75°F) [RH = 79%]
Pressure (altimeter): 29.76 inches Hg (1008.0 mb)
Winds: from the SSE (160 degrees) at 8 MPH (7 knots; 3.6 m/s)
Visibility: 6 or more miles (10+ km)
Ceiling: at least 12,000 feet AGL
Clouds: few clouds at 1500 feet AGL
scattered clouds at 12000 feet AGL
Weather: no significant weather observed at this time

METAR text: RCTP 222230Z 16006KT 9999 FEW015 SCT120 27/24 Q1007 NOSIG RMK A2976
Conditions at: RCTP (TAIPEI TAOYUAN , TW) observed 2230 UTC 22 July 2019
Temperature: 27.0°C (81°F)
Dewpoint: 24.0°C (75°F) [RH = 84%]
Pressure (altimeter): 29.73 inches Hg (1007.0 mb)
Winds: from the SSE (160 degrees) at 7 MPH (6 knots; 3.1 m/s)
Visibility: 6 or more miles (10+ km)
Ceiling: at least 12,000 feet AGL
Clouds: few clouds at 1500 feet AGL
scattered clouds at 12000 feet AGL
Weather: no significant weather observed at this time

METAR text: RCTP 222200Z 17007KT 9999 FEW015 SCT120 26/23 Q1007 NOSIG RMK A2976
Conditions at: RCTP (TAIPEI TAOYUAN , TW) observed 2200 UTC 22 July 2019
Temperature: 26.0°C (79°F)
Dewpoint: 23.0°C (73°F) [RH = 84%]
Pressure (altimeter): 29.73 inches Hg (1007.0 mb)
Winds: from the S (170 degrees) at 8 MPH (7 knots; 3.6 m/s)
Visibility: 6 or more miles (10+ km)
Ceiling: at least 12,000 feet AGL
Clouds: few clouds at 1500 feet AGL
scattered clouds at 12000 feet AGL
Weather: no significant weather observed at this time

METAR text: RCTP 222130Z 17006KT 120V190 9999 FEW015 SCT120 26/23 Q1007 NOSIG RMK A2975
Conditions at: RCTP (TAIPEI TAOYUAN , TW) observed 2130 UTC 22 July 2019
Temperature: 26.0°C (79°F)
Dewpoint: 23.0°C (73°F) [RH = 84%]
Pressure (altimeter): 29.73 inches Hg (1007.0 mb)
Winds: from the S (170 degrees) at 7 MPH (6 knots; 3.1 m/s)
Visibility: 6 or more miles (10+ km)
Ceiling: at least 12,000 feet AGL
Clouds: few clouds at 1500 feet AGL
scattered clouds at 12000 feet AGL
Weather: no significant weather observed at this time

METAR text: RCTP 222100Z 19004KT 140V230 9999 FEW015 SCT120 25/23 Q1007 NOSIG RMK A2975
Conditions at: RCTP (TAIPEI TAOYUAN , TW) observed 2100 UTC 22 July 2019
Temperature: 25.0°C (77°F)
Dewpoint: 23.0°C (73°F) [RH = 89%]
Pressure (altimeter): 29.73 inches Hg (1007.0 mb)
Winds: from the S (190 degrees) at 5 MPH (4 knots; 2.1 m/s)
Visibility: 6 or more miles (10+ km)
Ceiling: at least 12,000 feet AGL
Clouds: few clouds at 1500 feet AGL
scattered clouds at 12000 feet AGL
Weather: no significant weather observed at this time

METAR text: RCTP 222030Z 18003KT 130V250 9999 FEW015 SCT120 25/24 Q1007 NOSIG RMK A2974
Conditions at: RCTP (TAIPEI TAOYUAN , TW) observed 2030 UTC 22 July 2019
Temperature: 25.0°C (77°F)
Dewpoint: 24.0°C (75°F) [RH = 94%]
Pressure (altimeter): 29.73 inches Hg (1007.0 mb)
Winds: from the S (180 degrees) at 3 MPH (3 knots; 1.5 m/s)
Visibility: 6 or more miles (10+ km)
Ceiling: at least 12,000 feet AGL
Clouds: few clouds at 1500 feet AGL
scattered clouds at 12000 feet AGL
Weather: no significant weather observed at this time

METAR text: RCTP 222000Z VRB02KT 9999 FEW015 SCT120 25/23 Q1007 NOSIG RMK A2974
Conditions at: RCTP (TAIPEI TAOYUAN , TW) observed 2000 UTC 22 July 2019
Temperature: 25.0°C (77°F)
Dewpoint: 23.0°C (73°F) [RH = 89%]
Pressure (altimeter): 29.73 inches Hg (1007.0 mb)
Winds: variable direction winds at 2 MPH (2 knots; 1.0 m/s)
Visibility: 6 or more miles (10+ km)
Ceiling: at least 12,000 feet AGL
Clouds: few clouds at 1500 feet AGL
scattered clouds at 12000 feet AGL
Weather: no significant weather observed at this time

METAR text: RCTP 221930Z VRB02KT 9999 FEW015 SCT120 26/24 Q1007 NOSIG RMK A2974
Conditions at: RCTP (TAIPEI TAOYUAN , TW) observed 1930 UTC 22 July 2019
Temperature: 26.0°C (79°F)
Dewpoint: 24.0°C (75°F) [RH = 89%]
Pressure (altimeter): 29.73 inches Hg (1007.0 mb)
Winds: variable direction winds at 2 MPH (2 knots; 1.0 m/s)
Visibility: 6 or more miles (10+ km)
Ceiling: at least 12,000 feet AGL
Clouds: few clouds at 1500 feet AGL
scattered clouds at 12000 feet AGL
Weather: no significant weather observed at this time

METAR text: RCTP 221900Z VRB02KT 9999 FEW015 SCT120 26/24 Q1007 NOSIG RMK A2974
Conditions at: RCTP (TAIPEI TAOYUAN , TW) observed 1900 UTC 22 July 2019
Temperature: 26.0°C (79°F)
Dewpoint: 24.0°C (75°F) [RH = 89%]
Pressure (altimeter): 29.73 inches Hg (1007.0 mb)
Winds: variable direction winds at 2 MPH (2 knots; 1.0 m/s)
Visibility: 6 or more miles (10+ km)
Ceiling: at least 12,000 feet AGL
Clouds: few clouds at 1500 feet AGL
scattered clouds at 12000 feet AGL
Weather: no significant weather observed at this time

METAR text: RCTP 221830Z 15005KT 9999 FEW015 SCT120 26/24 Q1007 NOSIG RMK A2975
Conditions at: RCTP (TAIPEI TAOYUAN , TW) observed 1830 UTC 22 July 2019
Temperature: 26.0°C (79°F)
Dewpoint: 24.0°C (75°F) [RH = 89%]
Pressure (altimeter): 29.73 inches Hg (1007.0 mb)
Winds: from the SSE (150 degrees) at 6 MPH (5 knots; 2.6 m/s)
Visibility: 6 or more miles (10+ km)
Ceiling: at least 12,000 feet AGL
Clouds: few clouds at 1500 feet AGL
scattered clouds at 12000 feet AGL
Weather: no significant weather observed at this time

METAR text: RCTP 221800Z 16007KT 9999 FEW015 SCT120 26/24 Q1007 NOSIG RMK A2976
Conditions at: RCTP (TAIPEI TAOYUAN , TW) observed 1800 UTC 22 July 2019
Temperature: 26.0°C (79°F)
Dewpoint: 24.0°C (75°F) [RH = 89%]
Pressure (altimeter): 29.73 inches Hg (1007.0 mb)
Winds: from the SSE (160 degrees) at 8 MPH (7 knots; 3.6 m/s)
Visibility: 6 or more miles (10+ km)
Ceiling: at least 12,000 feet AGL
Clouds: few clouds at 1500 feet AGL
scattered clouds at 12000 feet AGL
Weather: no significant weather observed at this time

METAR text: RCTP 221730Z 17007KT 9999 FEW015 SCT120 26/24 Q1007 NOSIG RMK A2976
Conditions at: RCTP (TAIPEI TAOYUAN , TW) observed 1730 UTC 22 July 2019
Temperature: 26.0°C (79°F)
Dewpoint: 24.0°C (75°F) [RH = 89%]
Pressure (altimeter): 29.73 inches Hg (1007.0 mb)
Winds: from the S (170 degrees) at 8 MPH (7 knots; 3.6 m/s)
Visibility: 6 or more miles (10+ km)
Ceiling: at least 12,000 feet AGL
Clouds: few clouds at 1500 feet AGL
scattered clouds at 12000 feet AGL
Weather: no significant weather observed at this time

METAR text: RCTP 221700Z 20003KT 140V230 9999 FEW015 SCT120 25/24 Q1008 NOSIG RMK A2977
Conditions at: RCTP (TAIPEI TAOYUAN , TW) observed 1700 UTC 22 July 2019
Temperature: 25.0°C (77°F)
Dewpoint: 24.0°C (75°F) [RH = 94%]
Pressure (altimeter): 29.76 inches Hg (1008.0 mb)
Winds: from the SSW (200 degrees) at 3 MPH (3 knots; 1.5 m/s)
Visibility: 6 or more miles (10+ km)
Ceiling: at least 12,000 feet AGL
Clouds: few clouds at 1500 feet AGL
scattered clouds at 12000 feet AGL
Weather: no significant weather observed at this time

METAR text: RCTP 221630Z 18005KT 140V210 9999 FEW015 BKN120 26/24 Q1008 NOSIG RMK A2977
Conditions at: RCTP (TAIPEI TAOYUAN , TW) observed 1630 UTC 22 July 2019
Temperature: 26.0°C (79°F)
Dewpoint: 24.0°C (75°F) [RH = 89%]
Pressure (altimeter): 29.76 inches Hg (1008.0 mb)
Winds: from the S (180 degrees) at 6 MPH (5 knots; 2.6 m/s)
Visibility: 6 or more miles (10+ km)
Ceiling: 12000 feet AGL
Clouds: few clouds at 1500 feet AGL
broken clouds at 12000 feet AGL
Weather: no significant weather observed at this time

METAR text: RCTP 221600Z 13001KT 9999 FEW015 BKN100 26/23 Q1008 NOSIG RMK A2978
Conditions at: RCTP (TAIPEI TAOYUAN , TW) observed 1600 UTC 22 July 2019
Temperature: 26.0°C (79°F)
Dewpoint: 23.0°C (73°F) [RH = 84%]
Pressure (altimeter): 29.76 inches Hg (1008.0 mb)
Winds: from the SE (130 degrees) at 1 MPH (1 knots; 0.5 m/s)
Visibility: 6 or more miles (10+ km)
Ceiling: 10000 feet AGL
Clouds: few clouds at 1500 feet AGL
broken clouds at 10000 feet AGL
Weather: no significant weather observed at this time

METAR text: RCTP 221530Z 08001KT 9999 FEW015 SCT090 25/23 Q1008 NOSIG RMK A2978
Conditions at: RCTP (TAIPEI TAOYUAN , TW) observed 1530 UTC 22 July 2019
Temperature: 25.0°C (77°F)
Dewpoint: 23.0°C (73°F) [RH = 89%]
Pressure (altimeter): 29.76 inches Hg (1008.0 mb)
Winds: from the E (80 degrees) at 1 MPH (1 knots; 0.5 m/s)
Visibility: 6 or more miles (10+ km)
Ceiling: at least 12,000 feet AGL
Clouds: few clouds at 1500 feet AGL
scattered clouds at 9000 feet AGL
Weather: no significant weather observed at this time

METAR text: RCTP 221500Z 16005KT 130V200 9999 FEW015 SCT090 26/23 Q1008 NOSIG RMK A2977
Conditions at: RCTP (TAIPEI TAOYUAN , TW) observed 1500 UTC 22 July 2019
Temperature: 26.0°C (79°F)
Dewpoint: 23.0°C (73°F) [RH = 84%]
Pressure (altimeter): 29.76 inches Hg (1008.0 mb)
Winds: from the SSE (160 degrees) at 6 MPH (5 knots; 2.6 m/s)
Visibility: 6 or more miles (10+ km)
Ceiling: at least 12,000 feet AGL
Clouds: few clouds at 1500 feet AGL
scattered clouds at 9000 feet AGL
Weather: no significant weather observed at this time

METAR text: RCTP 221430Z 15005KT 110V180 9999 FEW015 SCT090 26/24 Q1008 NOSIG RMK A2977
Conditions at: RCTP (TAIPEI TAOYUAN , TW) observed 1430 UTC 22 July 2019
Temperature: 26.0°C (79°F)
Dewpoint: 24.0°C (75°F) [RH = 89%]
Pressure (altimeter): 29.76 inches Hg (1008.0 mb)
Winds: from the SSE (150 degrees) at 6 MPH (5 knots; 2.6 m/s)
Visibility: 6 or more miles (10+ km)
Ceiling: at least 12,000 feet AGL
Clouds: few clouds at 1500 feet AGL
scattered clouds at 9000 feet AGL
Weather: no significant weather observed at this time

METAR text: RCTP 221400Z 14005KT 9999 FEW015 BKN090 26/24 Q1008 NOSIG RMK A2977
Conditions at: RCTP (TAIPEI TAOYUAN , TW) observed 1400 UTC 22 July 2019
Temperature: 26.0°C (79°F)
Dewpoint: 24.0°C (75°F) [RH = 89%]
Pressure (altimeter): 29.76 inches Hg (1008.0 mb)
Winds: from the SE (140 degrees) at 6 MPH (5 knots; 2.6 m/s)
Visibility: 6 or more miles (10+ km)
Ceiling: 9000 feet AGL
Clouds: few clouds at 1500 feet AGL
broken clouds at 9000 feet AGL
Weather: no significant weather observed at this time

METAR text: RCTP 221330Z 15005KT 9999 FEW015 BKN090 26/24 Q1008 NOSIG RMK A2978
Conditions at: RCTP (TAIPEI TAOYUAN , TW) observed 1330 UTC 22 July 2019
Temperature: 26.0°C (79°F)
Dewpoint: 24.0°C (75°F) [RH = 89%]
Pressure (altimeter): 29.76 inches Hg (1008.0 mb)
Winds: from the SSE (150 degrees) at 6 MPH (5 knots; 2.6 m/s)
Visibility: 6 or more miles (10+ km)
Ceiling: 9000 feet AGL
Clouds: few clouds at 1500 feet AGL
broken clouds at 9000 feet AGL
Weather: no significant weather observed at this time

METAR text: RCTP 221300Z 16006KT 120V230 9999 FEW015 BKN090 26/23 Q1008 NOSIG RMK A2977
Conditions at: RCTP (TAIPEI TAOYUAN , TW) observed 1300 UTC 22 July 2019
Temperature: 26.0°C (79°F)
Dewpoint: 23.0°C (73°F) [RH = 84%]
Pressure (altimeter): 29.76 inches Hg (1008.0 mb)
Winds: from the SSE (160 degrees) at 7 MPH (6 knots; 3.1 m/s)
Visibility: 6 or more miles (10+ km)
Ceiling: 9000 feet AGL
Clouds: few clouds at 1500 feet AGL
broken clouds at 9000 feet AGL
Weather: no significant weather observed at this time

METAR text: RCTP 221230Z 18008KT 140V200 9000 FEW015 BKN080 26/23 Q1008 NOSIG RMK A2977
Conditions at: RCTP (TAIPEI TAOYUAN , TW) observed 1230 UTC 22 July 2019
Temperature: 26.0°C (79°F)
Dewpoint: 23.0°C (73°F) [RH = 84%]
Pressure (altimeter): 29.76 inches Hg (1008.0 mb)
Winds: from the S (180 degrees) at 9 MPH (8 knots; 4.1 m/s)
Visibility: 6 miles ( 9 km)
Ceiling: 8000 feet AGL
Clouds: few clouds at 1500 feet AGL
broken clouds at 8000 feet AGL
Weather: no significant weather observed at this time

METAR text: RCTP 221200Z 18008KT 160V220 9000 -SHRA FEW015 BKN070 25/24 Q1008 NOSIG RMK A2977 RA AMT 2.2MM
Conditions at: RCTP (TAIPEI TAOYUAN , TW) observed 1200 UTC 22 July 2019
Temperature: 25.0°C (77°F)
Dewpoint: 24.0°C (75°F) [RH = 94%]
Pressure (altimeter): 29.76 inches Hg (1008.0 mb)
Winds: from the S (180 degrees) at 9 MPH (8 knots; 4.1 m/s)
Visibility: 6 miles ( 9 km)
Ceiling: 7000 feet AGL
Clouds: few clouds at 1500 feet AGL
broken clouds at 7000 feet AGL
Weather: -SHRA  (light rain showers)

METAR text: RCTP 221130Z 18011KT 8000 -SHRA SCT015 BKN060 BKN080 25/24 Q1007 NOSIG RMK A2976
Conditions at: RCTP (TAIPEI TAOYUAN , TW) observed 1130 UTC 22 July 2019
Temperature: 25.0°C (77°F)
Dewpoint: 24.0°C (75°F) [RH = 94%]
Pressure (altimeter): 29.73 inches Hg (1007.0 mb)
Winds: from the S (180 degrees) at 13 MPH (11 knots; 5.7 m/s)
Visibility: 5 miles ( 8 km)
Ceiling: 6000 feet AGL
Clouds: scattered clouds at 1500 feet AGL
broken clouds at 6000 feet AGL
broken clouds at 8000 feet AGL
Weather: -SHRA  (light rain showers)

METAR text: RCTP 221100Z 14011KT 8000 3500NE -SHRA SCT010 BKN014 BKN080 26/24 Q1007 NOSIG RMK A2976 RA AMT 1.2MM
Conditions at: RCTP (TAIPEI TAOYUAN , TW) observed 1100 UTC 22 July 2019
Temperature: 26.0°C (79°F)
Dewpoint: 24.0°C (75°F) [RH = 89%]
Pressure (altimeter): 29.73 inches Hg (1007.0 mb)
Winds: from the SE (140 degrees) at 13 MPH (11 knots; 5.7 m/s)
Visibility: 5 miles ( 8 km)
Ceiling: 1400 feet AGL
Clouds: scattered clouds at 1000 feet AGL
broken clouds at 1400 feet AGL
broken clouds at 8000 feet AGL
Weather: -SHRA  (light rain showers)

METAR text: RCTP 221030Z 16010KT 130V190 3500 -SHRA SCT010 BKN014 BKN080 27/24 Q1007 NOSIG RMK A2975
Conditions at: RCTP (TAIPEI TAOYUAN , TW) observed 1030 UTC 22 July 2019
Temperature: 27.0°C (81°F)
Dewpoint: 24.0°C (75°F) [RH = 84%]
Pressure (altimeter): 29.73 inches Hg (1007.0 mb)
Winds: from the SSE (160 degrees) at 12 MPH (10 knots; 5.1 m/s)
Visibility: 2.17 miles (3.49 km)
Ceiling: 1400 feet AGL
Clouds: scattered clouds at 1000 feet AGL
broken clouds at 1400 feet AGL
broken clouds at 8000 feet AGL
Weather: -SHRA  (light rain showers)

METAR text: RCTP 221026Z 16010KT 130V190 9999 3000NE -SHRA SCT010 BKN014 BKN080 28/24 Q1007 NOSIG RMK A2975
Conditions at: RCTP (TAIPEI TAOYUAN , TW) observed 1026 UTC 22 July 2019
Temperature: 28.0°C (82°F)
Dewpoint: 24.0°C (75°F) [RH = 79%]
Pressure (altimeter): 29.73 inches Hg (1007.0 mb)
Winds: from the SSE (160 degrees) at 12 MPH (10 knots; 5.1 m/s)
Visibility: 6 or more miles (10+ km)
Ceiling: 1400 feet AGL
Clouds: scattered clouds at 1000 feet AGL
broken clouds at 1400 feet AGL
broken clouds at 8000 feet AGL
Weather: -SHRA  (light rain showers)

METAR text: RCTP 221020Z 15011KT 9999 -SHRA SCT010 BKN015 BKN080 28/25 Q1007 NOSIG RMK A2974
Conditions at: RCTP (TAIPEI TAOYUAN , TW) observed 1020 UTC 22 July 2019
Temperature: 28.0°C (82°F)
Dewpoint: 25.0°C (77°F) [RH = 84%]
Pressure (altimeter): 29.73 inches Hg (1007.0 mb)
Winds: from the SSE (150 degrees) at 13 MPH (11 knots; 5.7 m/s)
Visibility: 6 or more miles (10+ km)
Ceiling: 1500 feet AGL
Clouds: scattered clouds at 1000 feet AGL
broken clouds at 1500 feet AGL
broken clouds at 8000 feet AGL
Weather: -SHRA  (light rain showers)

METAR text: RCTP 221000Z 23009KT 9999 SCT015 SCT020 BKN080 28/24 Q1006 NOSIG RMK A2973
Conditions at: RCTP (TAIPEI TAOYUAN , TW) observed 1000 UTC 22 July 2019
Temperature: 28.0°C (82°F)
Dewpoint: 24.0°C (75°F) [RH = 79%]
Pressure (altimeter): 29.70 inches Hg (1006.0 mb)
Winds: from the SW (230 degrees) at 10 MPH (9 knots; 4.6 m/s)
Visibility: 6 or more miles (10+ km)
Ceiling: 8000 feet AGL
Clouds: scattered clouds at 1500 feet AGL
scattered clouds at 2000 feet AGL
broken clouds at 8000 feet AGL
Weather: no significant weather observed at this time

METAR text: RCTP 220930Z 24007KT 9999 FEW015 SCT020 BKN080 28/25 Q1006 NOSIG RMK A2972
Conditions at: RCTP (TAIPEI TAOYUAN , TW) observed 0930 UTC 22 July 2019
Temperature: 28.0°C (82°F)
Dewpoint: 25.0°C (77°F) [RH = 84%]
Pressure (altimeter): 29.70 inches Hg (1006.0 mb)
Winds: from the WSW (240 degrees) at 8 MPH (7 knots; 3.6 m/s)
Visibility: 6 or more miles (10+ km)
Ceiling: 8000 feet AGL
Clouds: few clouds at 1500 feet AGL
scattered clouds at 2000 feet AGL
broken clouds at 8000 feet AGL
Weather: no significant weather observed at this time

METAR text: RCTP 220900Z 24007KT 180V270 9999 FEW015 FEW018CB SCT022 BKN080 28/25 Q1006 NOSIG RMK CB E A2972
Conditions at: RCTP (TAIPEI TAOYUAN , TW) observed 0900 UTC 22 July 2019
Temperature: 28.0°C (82°F)
Dewpoint: 25.0°C (77°F) [RH = 84%]
Pressure (altimeter): 29.70 inches Hg (1006.0 mb)
Winds: from the WSW (240 degrees) at 8 MPH (7 knots; 3.6 m/s)
Visibility: 6 or more miles (10+ km)
Ceiling: 8000 feet AGL
Clouds: few clouds at 1500 feet AGL
few clouds at 1800 feet AGL
scattered clouds at 2200 feet AGL
broken clouds at 8000 feet AGL
Weather: no significant weather observed at this time

METAR text: RCTP 220830Z 23006KT 200V260 9999 FEW015 FEW018CB SCT022 BKN080 29/25 Q1006 NOSIG RMK CB E A2972
Conditions at: RCTP (TAIPEI TAOYUAN , TW) observed 0830 UTC 22 July 2019
Temperature: 29.0°C (84°F)
Dewpoint: 25.0°C (77°F) [RH = 79%]
Pressure (altimeter): 29.70 inches Hg (1006.0 mb)
Winds: from the SW (230 degrees) at 7 MPH (6 knots; 3.1 m/s)
Visibility: 6 or more miles (10+ km)
Ceiling: 8000 feet AGL
Clouds: few clouds at 1500 feet AGL
few clouds at 1800 feet AGL
scattered clouds at 2200 feet AGL
broken clouds at 8000 feet AGL
Weather: no significant weather observed at this time

METAR text: RCTP 220804Z 23009KT 9999 -SHRA FEW015 FEW018CB SCT022 BKN100 28/25 Q1006 NOSIG RMK CB E A2971
Conditions at: RCTP (TAIPEI TAOYUAN , TW) observed 0804 UTC 22 July 2019
Temperature: 28.0°C (82°F)
Dewpoint: 25.0°C (77°F) [RH = 84%]
Pressure (altimeter): 29.70 inches Hg (1006.0 mb)
Winds: from the SW (230 degrees) at 10 MPH (9 knots; 4.6 m/s)
Visibility: 6 or more miles (10+ km)
Ceiling: 10000 feet AGL
Clouds: few clouds at 1500 feet AGL
few clouds at 1800 feet AGL
scattered clouds at 2200 feet AGL
broken clouds at 10000 feet AGL
Weather: -SHRA  (light rain showers)

METAR text: RCTP 220800Z 24009KT 210V270 9999 FEW015 FEW018CB SCT022 BKN100 28/25 Q1005 NOSIG RMK CB E A2970 RA AMT 0.4MM
Conditions at: RCTP (TAIPEI TAOYUAN , TW) observed 0800 UTC 22 July 2019
Temperature: 28.0°C (82°F)
Dewpoint: 25.0°C (77°F) [RH = 84%]
Pressure (altimeter): 29.68 inches Hg (1005.0 mb)
Winds: from the WSW (240 degrees) at 10 MPH (9 knots; 4.6 m/s)
Visibility: 6 or more miles (10+ km)
Ceiling: 10000 feet AGL
Clouds: few clouds at 1500 feet AGL
few clouds at 1800 feet AGL
scattered clouds at 2200 feet AGL
broken clouds at 10000 feet AGL
Weather: no significant weather observed at this time

METAR text: RCTP 220730Z 25011KT 9999 -SHRA FEW015 FEW018CB SCT022 BKN100 27/25 Q1005 NOSIG RMK CB E-SE A2970
Conditions at: RCTP (TAIPEI TAOYUAN , TW) observed 0730 UTC 22 July 2019
Temperature: 27.0°C (81°F)
Dewpoint: 25.0°C (77°F) [RH = 89%]
Pressure (altimeter): 29.68 inches Hg (1005.0 mb)
Winds: from the WSW (250 degrees) at 13 MPH (11 knots; 5.7 m/s)
Visibility: 6 or more miles (10+ km)
Ceiling: 10000 feet AGL
Clouds: few clouds at 1500 feet AGL
few clouds at 1800 feet AGL
scattered clouds at 2200 feet AGL
broken clouds at 10000 feet AGL
Weather: -SHRA  (light rain showers)

METAR text: RCTP 220700Z 26008KT 9999 -SHRA FEW015 FEW018CB SCT022 BKN100 28/24 Q1005 RETS NOSIG RMK CB E-SE A2970
Conditions at: RCTP (TAIPEI TAOYUAN , TW) observed 0700 UTC 22 July 2019
Temperature: 28.0°C (82°F)
Dewpoint: 24.0°C (75°F) [RH = 79%]
Pressure (altimeter): 29.68 inches Hg (1005.0 mb)
Winds: from the W (260 degrees) at 9 MPH (8 knots; 4.1 m/s)
Visibility: 6 or more miles (10+ km)
Ceiling: 10000 feet AGL
Clouds: few clouds at 1500 feet AGL
few clouds at 1800 feet AGL
scattered clouds at 2200 feet AGL
broken clouds at 10000 feet AGL
Weather: -SHRA  (light rain showers)

METAR text: RCTP 220651Z 26010KT 9999 VCTS -SHRA FEW015 FEW018CB SCT022 BKN100 29/24 Q1005 NOSIG RMK TS SE-S MOV NW A2970
Conditions at: RCTP (TAIPEI TAOYUAN , TW) observed 0651 UTC 22 July 2019
Temperature: 29.0°C (84°F)
Dewpoint: 24.0°C (75°F) [RH = 74%]
Pressure (altimeter): 29.68 inches Hg (1005.0 mb)
Winds: from the W (260 degrees) at 12 MPH (10 knots; 5.1 m/s)
Visibility: 6 or more miles (10+ km)
Ceiling: 10000 feet AGL
Clouds: few clouds at 1500 feet AGL
few clouds at 1800 feet AGL
scattered clouds at 2200 feet AGL
broken clouds at 10000 feet AGL
Weather: VCTS -SHRA  (thunderstorm in vicinity, light rain showers)

METAR text: RCTP 220630Z 28013KT 250V310 9999 VCTS VCSH FEW015 FEW018CB SCT022 BKN100 32/25 Q1005 NOSIG RMK TS SE-S MOV NW A2969
Conditions at: RCTP (TAIPEI TAOYUAN , TW) observed 0630 UTC 22 July 2019
Temperature: 32.0°C (90°F)
Dewpoint: 25.0°C (77°F) [RH = 67%]
Pressure (altimeter): 29.68 inches Hg (1005.0 mb)
Winds: from the W (280 degrees) at 15 MPH (13 knots; 6.7 m/s)
Visibility: 6 or more miles (10+ km)
Ceiling: 10000 feet AGL
Clouds: few clouds at 1500 feet AGL
few clouds at 1800 feet AGL
scattered clouds at 2200 feet AGL
broken clouds at 10000 feet AGL
Weather: VCTS VCSH  (thunderstorm in vicinity, showers in vicinity)

METAR text: RCTP 220619Z 27013KT 9999 VCTS VCSH FEW015 FEW018CB SCT022 BKN100 32/25 Q1005 NOSIG RMK TS SE-S STNR A2969
Conditions at: RCTP (TAIPEI TAOYUAN , TW) observed 0619 UTC 22 July 2019
Temperature: 32.0°C (90°F)
Dewpoint: 25.0°C (77°F) [RH = 67%]
Pressure (altimeter): 29.68 inches Hg (1005.0 mb)
Winds: from the W (270 degrees) at 15 MPH (13 knots; 6.7 m/s)
Visibility: 6 or more miles (10+ km)
Ceiling: 10000 feet AGL
Clouds: few clouds at 1500 feet AGL
few clouds at 1800 feet AGL
scattered clouds at 2200 feet AGL
broken clouds at 10000 feet AGL
Weather: VCTS VCSH  (thunderstorm in vicinity, showers in vicinity)

METAR text: RCTP 220600Z 28017KT 9999 FEW015 FEW018TCU SCT022 BKN100 31/25 Q1005 NOSIG RMK TCU SE AND SW A2969
Conditions at: RCTP (TAIPEI TAOYUAN , TW) observed 0600 UTC 22 July 2019
Temperature: 31.0°C (88°F)
Dewpoint: 25.0°C (77°F) [RH = 71%]
Pressure (altimeter): 29.68 inches Hg (1005.0 mb)
Winds: from the W (280 degrees) at 20 MPH (17 knots; 8.7 m/s)
Visibility: 6 or more miles (10+ km)
Ceiling: 10000 feet AGL
Clouds: few clouds at 1500 feet AGL
few clouds at 1800 feet AGL
scattered clouds at 2200 feet AGL
broken clouds at 10000 feet AGL
Weather: no significant weather observed at this time

METAR text: RCTP 220530Z 27013KT 240V300 9999 FEW020 SCT035 BKN150 34/25 Q1005 NOSIG RMK A2970
Conditions at: RCTP (TAIPEI TAOYUAN , TW) observed 0530 UTC 22 July 2019
Temperature: 34.0°C (93°F)
Dewpoint: 25.0°C (77°F) [RH = 60%]
Pressure (altimeter): 29.68 inches Hg (1005.0 mb)
Winds: from the W (270 degrees) at 15 MPH (13 knots; 6.7 m/s)
Visibility: 6 or more miles (10+ km)
Ceiling: 15000 feet AGL
Clouds: few clouds at 2000 feet AGL
scattered clouds at 3500 feet AGL
broken clouds at 15000 feet AGL
Weather: no significant weather observed at this time

METAR text: RCTP 220500Z 29015KT 9999 FEW020 SCT035 BKN150 34/25 Q1006 NOSIG RMK A2972
Conditions at: RCTP (TAIPEI TAOYUAN , TW) observed 0500 UTC 22 July 2019
Temperature: 34.0°C (93°F)
Dewpoint: 25.0°C (77°F) [RH = 60%]
Pressure (altimeter): 29.70 inches Hg (1006.0 mb)
Winds: from the WNW (290 degrees) at 17 MPH (15 knots; 7.7 m/s)
Visibility: 6 or more miles (10+ km)
Ceiling: 15000 feet AGL
Clouds: few clouds at 2000 feet AGL
scattered clouds at 3500 feet AGL
broken clouds at 15000 feet AGL
Weather: no significant weather observed at this time

METAR text: RCTP 220430Z 28013KT 9999 FEW020 SCT050 BKN160 34/25 Q1006 NOSIG RMK A2973
Conditions at: RCTP (TAIPEI TAOYUAN , TW) observed 0430 UTC 22 July 2019
Temperature: 34.0°C (93°F)
Dewpoint: 25.0°C (77°F) [RH = 60%]
Pressure (altimeter): 29.70 inches Hg (1006.0 mb)
Winds: from the W (280 degrees) at 15 MPH (13 knots; 6.7 m/s)
Visibility: 6 or more miles (10+ km)
Ceiling: 16000 feet AGL
Clouds: few clouds at 2000 feet AGL
scattered clouds at 5000 feet AGL
broken clouds at 16000 feet AGL
Weather: no significant weather observed at this time

METAR text: RCTP 220400Z 28011KT 250V310 9999 FEW015 BKN150 34/25 Q1007 NOSIG RMK A2974
Conditions at: RCTP (TAIPEI TAOYUAN , TW) observed 0400 UTC 22 July 2019
Temperature: 34.0°C (93°F)
Dewpoint: 25.0°C (77°F) [RH = 60%]
Pressure (altimeter): 29.73 inches Hg (1007.0 mb)
Winds: from the W (280 degrees) at 13 MPH (11 knots; 5.7 m/s)
Visibility: 6 or more miles (10+ km)
Ceiling: 15000 feet AGL
Clouds: few clouds at 1500 feet AGL
broken clouds at 15000 feet AGL
Weather: no significant weather observed at this time

METAR text: RCTP 220330Z 28011KT 9999 FEW015 BKN120 32/24 Q1007 NOSIG RMK A2974
Conditions at: RCTP (TAIPEI TAOYUAN , TW) observed 0330 UTC 22 July 2019
Temperature: 32.0°C (90°F)
Dewpoint: 24.0°C (75°F) [RH = 63%]
Pressure (altimeter): 29.73 inches Hg (1007.0 mb)
Winds: from the W (280 degrees) at 13 MPH (11 knots; 5.7 m/s)
Visibility: 6 or more miles (10+ km)
Ceiling: 12000 feet AGL
Clouds: few clouds at 1500 feet AGL
broken clouds at 12000 feet AGL
Weather: no significant weather observed at this time

METAR text: RCTP 220300Z 29008KT 240V320 9999 FEW015 BKN150 33/24 Q1007 NOSIG RMK A2974
Conditions at: RCTP (TAIPEI TAOYUAN , TW) observed 0300 UTC 22 July 2019
Temperature: 33.0°C (91°F)
Dewpoint: 24.0°C (75°F) [RH = 59%]
Pressure (altimeter): 29.73 inches Hg (1007.0 mb)
Winds: from the WNW (290 degrees) at 9 MPH (8 knots; 4.1 m/s)
Visibility: 6 or more miles (10+ km)
Ceiling: 15000 feet AGL
Clouds: few clouds at 1500 feet AGL
broken clouds at 15000 feet AGL
Weather: no significant weather observed at this time

METAR text: RCTP 220230Z 17006KT 130V240 9999 FEW015 BKN150 32/24 Q1007 NOSIG RMK A2975
Conditions at: RCTP (TAIPEI TAOYUAN , TW) observed 0230 UTC 22 July 2019
Temperature: 32.0°C (90°F)
Dewpoint: 24.0°C (75°F) [RH = 63%]
Pressure (altimeter): 29.73 inches Hg (1007.0 mb)
Winds: from the S (170 degrees) at 7 MPH (6 knots; 3.1 m/s)
Visibility: 6 or more miles (10+ km)
Ceiling: 15000 feet AGL
Clouds: few clouds at 1500 feet AGL
broken clouds at 15000 feet AGL
Weather: no significant weather observed at this time

METAR text: RCTP 220200Z 17006KT 120V200 9999 -RA FEW015 BKN150 32/25 Q1007 NOSIG RMK A2975
Conditions at: RCTP (TAIPEI TAOYUAN , TW) observed 0200 UTC 22 July 2019
Temperature: 32.0°C (90°F)
Dewpoint: 25.0°C (77°F) [RH = 67%]
Pressure (altimeter): 29.73 inches Hg (1007.0 mb)
Winds: from the S (170 degrees) at 7 MPH (6 knots; 3.1 m/s)
Visibility: 6 or more miles (10+ km)
Ceiling: 15000 feet AGL
Clouds: few clouds at 1500 feet AGL
broken clouds at 15000 feet AGL
Weather: -RA  (light rain)

METAR text: RCTP 220130Z 15005KT 080V200 9999 -RA FEW015 BKN150 31/24 Q1007 NOSIG RMK A2975
Conditions at: RCTP (TAIPEI TAOYUAN , TW) observed 0130 UTC 22 July 2019
Temperature: 31.0°C (88°F)
Dewpoint: 24.0°C (75°F) [RH = 66%]
Pressure (altimeter): 29.73 inches Hg (1007.0 mb)
Winds: from the SSE (150 degrees) at 6 MPH (5 knots; 2.6 m/s)
Visibility: 6 or more miles (10+ km)
Ceiling: 15000 feet AGL
Clouds: few clouds at 1500 feet AGL
broken clouds at 15000 feet AGL
Weather: -RA  (light rain)

METAR text: RCTP 220100Z 16005KT 100V210 9999 -RA FEW015 BKN150 30/24 Q1007 NOSIG RMK A2976
Conditions at: RCTP (TAIPEI TAOYUAN , TW) observed 0100 UTC 22 July 2019
Temperature: 30.0°C (86°F)
Dewpoint: 24.0°C (75°F) [RH = 70%]
Pressure (altimeter): 29.73 inches Hg (1007.0 mb)
Winds: from the SSE (160 degrees) at 6 MPH (5 knots; 2.6 m/s)
Visibility: 6 or more miles (10+ km)
Ceiling: 15000 feet AGL
Clouds: few clouds at 1500 feet AGL
broken clouds at 15000 feet AGL
Weather: -RA  (light rain)

METAR text: RCTP 220031Z 14003KT 090V200 9999 -RA FEW015 BKN120 30/25 Q1008 NOSIG RMK A2977
Conditions at: RCTP (TAIPEI TAOYUAN , TW) observed 0031 UTC 22 July 2019
Temperature: 30.0°C (86°F)
Dewpoint: 25.0°C (77°F) [RH = 75%]
Pressure (altimeter): 29.76 inches Hg (1008.0 mb)
Winds: from the SE (140 degrees) at 3 MPH (3 knots; 1.5 m/s)
Visibility: 6 or more miles (10+ km)
Ceiling: 12000 feet AGL
Clouds: few clouds at 1500 feet AGL
broken clouds at 12000 feet AGL
Weather: -RA  (light rain)

METAR text: RCTP 220030Z 12004KT 080V150 9999 FEW015 BKN120 30/24 Q1008 NOSIG RMK A2977
Conditions at: RCTP (TAIPEI TAOYUAN , TW) observed 0030 UTC 22 July 2019
Temperature: 30.0°C (86°F)
Dewpoint: 24.0°C (75°F) [RH = 70%]
Pressure (altimeter): 29.76 inches Hg (1008.0 mb)
Winds: from the ESE (120 degrees) at 5 MPH (4 knots; 2.1 m/s)
Visibility: 6 or more miles (10+ km)
Ceiling: 12000 feet AGL
Clouds: few clouds at 1500 feet AGL
broken clouds at 12000 feet AGL
Weather: no significant weather observed at this time

METAR text: RCTP 220000Z 11004KT 070V160 9999 FEW015 BKN100 30/24 Q1008 NOSIG RMK A2977
Conditions at: RCTP (TAIPEI TAOYUAN , TW) observed 0000 UTC 22 July 2019
Temperature: 30.0°C (86°F)
Dewpoint: 24.0°C (75°F) [RH = 70%]
Pressure (altimeter): 29.76 inches Hg (1008.0 mb)
Winds: from the ESE (110 degrees) at 5 MPH (4 knots; 2.1 m/s)
Visibility: 6 or more miles (10+ km)
Ceiling: 10000 feet AGL
Clouds: few clouds at 1500 feet AGL
broken clouds at 10000 feet AGL
Weather: no significant weather observed at this time

METAR text: RCTP 212330Z 16004KT 130V190 9999 FEW015 BKN100 29/24 Q1008 NOSIG RMK A2977
Conditions at: RCTP (TAIPEI TAOYUAN , TW) observed 2330 UTC 21 July 2019
Temperature: 29.0°C (84°F)
Dewpoint: 24.0°C (75°F) [RH = 74%]
Pressure (altimeter): 29.76 inches Hg (1008.0 mb)
Winds: from the SSE (160 degrees) at 5 MPH (4 knots; 2.1 m/s)
Visibility: 6 or more miles (10+ km)
Ceiling: 10000 feet AGL
Clouds: few clouds at 1500 feet AGL
broken clouds at 10000 feet AGL
Weather: no significant weather observed at this time

METAR text: RCTP 212303Z 08003KT 030V150 9999 FEW015 BKN080 28/25 Q1007 NOSIG RMK R23 A2976
Conditions at: RCTP (TAIPEI TAOYUAN , TW) observed 2303 UTC 21 July 2019
Temperature: 28.0°C (82°F)
Dewpoint: 25.0°C (77°F) [RH = 84%]
Pressure (altimeter): 29.73 inches Hg (1007.0 mb)
Winds: from the E (80 degrees) at 3 MPH (3 knots; 1.5 m/s)
Visibility: 6 or more miles (10+ km)
Ceiling: 8000 feet AGL
Clouds: few clouds at 1500 feet AGL
broken clouds at 8000 feet AGL
Weather: no significant weather observed at this time

METAR text: RCTP 212300Z VRB02KT 9999 FEW015 BKN080 29/24 Q1007 NOSIG RMK A2975
Conditions at: RCTP (TAIPEI TAOYUAN , TW) observed 2300 UTC 21 July 2019
Temperature: 29.0°C (84°F)
Dewpoint: 24.0°C (75°F) [RH = 74%]
Pressure (altimeter): 29.73 inches Hg (1007.0 mb)
Winds: variable direction winds at 2 MPH (2 knots; 1.0 m/s)
Visibility: 6 or more miles (10+ km)
Ceiling: 8000 feet AGL
Clouds: few clouds at 1500 feet AGL
broken clouds at 8000 feet AGL
Weather: no significant weather observed at this time

METAR text: RCTP 212230Z 17005KT 120V190 9999 FEW015 BKN080 28/24 Q1007 NOSIG RMK A2975
Conditions at: RCTP (TAIPEI TAOYUAN , TW) observed 2230 UTC 21 July 2019
Temperature: 28.0°C (82°F)
Dewpoint: 24.0°C (75°F) [RH = 79%]
Pressure (altimeter): 29.73 inches Hg (1007.0 mb)
Winds: from the S (170 degrees) at 6 MPH (5 knots; 2.6 m/s)
Visibility: 6 or more miles (10+ km)
Ceiling: 8000 feet AGL
Clouds: few clouds at 1500 feet AGL
broken clouds at 8000 feet AGL
Weather: no significant weather observed at this time

METAR text: RCTP 212200Z 17007KT 130V190 9999 FEW015 BKN080 27/24 Q1006 NOSIG RMK A2972
Conditions at: RCTP (TAIPEI TAOYUAN , TW) observed 2200 UTC 21 July 2019
Temperature: 27.0°C (81°F)
Dewpoint: 24.0°C (75°F) [RH = 84%]
Pressure (altimeter): 29.70 inches Hg (1006.0 mb)
Winds: from the S (170 degrees) at 8 MPH (7 knots; 3.6 m/s)
Visibility: 6 or more miles (10+ km)
Ceiling: 8000 feet AGL
Clouds: few clouds at 1500 feet AGL
broken clouds at 8000 feet AGL
Weather: no significant weather observed at this time

METAR text: RCTP 212130Z 16005KT 110V200 9999 FEW015 BKN080 28/24 Q1006 NOSIG RMK A2971
Conditions at: RCTP (TAIPEI TAOYUAN , TW) observed 2130 UTC 21 July 2019
Temperature: 28.0°C (82°F)
Dewpoint: 24.0°C (75°F) [RH = 79%]
Pressure (altimeter): 29.70 inches Hg (1006.0 mb)
Winds: from the SSE (160 degrees) at 6 MPH (5 knots; 2.6 m/s)
Visibility: 6 or more miles (10+ km)
Ceiling: 8000 feet AGL
Clouds: few clouds at 1500 feet AGL
broken clouds at 8000 feet AGL
Weather: no significant weather observed at this time

METAR text: RCTP 212100Z 15007KT 9999 FEW015 BKN080 28/24 Q1006 NOSIG RMK A2971
Conditions at: RCTP (TAIPEI TAOYUAN , TW) observed 2100 UTC 21 July 2019
Temperature: 28.0°C (82°F)
Dewpoint: 24.0°C (75°F) [RH = 79%]
Pressure (altimeter): 29.70 inches Hg (1006.0 mb)
Winds: from the SSE (150 degrees) at 8 MPH (7 knots; 3.6 m/s)
Visibility: 6 or more miles (10+ km)
Ceiling: 8000 feet AGL
Clouds: few clouds at 1500 feet AGL
broken clouds at 8000 feet AGL
Weather: no significant weather observed at this time

Forecast for: RCTP (TAIPEI TAOYUAN , TW)
Text: TAF RCTP 230500Z 2306/2412 22005KT 9999 FEW015 SCT120
Forecast period: 0600 UTC 23 July 2019 to 0000 UTC 24 July 2019
Forecast type: FROM: standard forecast or significant change
Winds: from the SW (220 degrees) at 6 MPH (5 knots; 2.6 m/s)
Visibility: 6 or more miles 10+ km)
Ceiling: at least 12,000 feet AGL
Clouds: few clouds at 1500 feet AGL
scattered clouds at 12000 feet AGL
Weather: no significant weather forecast for this period
Text: TEMPO 2306/2310 28012KT 5000 SHRA FEW010 FEW015CB BKN018 BKN070
Forecast period: 0600 to 1000 UTC 23 July 2019
Forecast type: TEMPORARY: The following changes expected for less than half the time period
Winds: from the W (280 degrees) at 14 MPH (12 knots; 6.2 m/s)
Visibility: 3 miles (5 km)
Ceiling: 1800 feet AGL
Clouds: few clouds at 1000 feet AGL
few clouds at 1500 feet AGL
broken clouds at 1800 feet AGL
Weather: SHRA  (rain showers)
Text: BECMG 2400/2402 26010KT
Forecast period: 0000 to 1000 UTC 24 July 2019
Forecast type: BECOMING: Conditions expected to become as follows by 0200 UTC 24 July 2019
Winds: from the W (260 degrees) at 12 MPH (10 knots; 5.1 m/s)
Visibility: 6 or more miles 10+ km)
Ceiling: at least 12,000 feet AGL
Clouds: few clouds at 1500 feet AGL
scattered clouds at 12000 feet AGL
Weather: no significant weather forecast for this period
Text: BECMG 2410/2412 22005KT
Forecast period: 1000 to 1200 UTC 24 July 2019
Forecast type: BECOMING: Conditions expected to become as follows by 1200 UTC 24 July 2019
Winds: from the SW (220 degrees) at 6 MPH (5 knots; 2.6 m/s)
Visibility: 6 or more miles 10+ km)
Ceiling: at least 12,000 feet AGL
Clouds: few clouds at 1500 feet AGL
scattered clouds at 12000 feet AGL
Weather: no significant weather forecast for this period